sensor_id;sensor_type;location;lat;lon;timestamp;temperature;humidity
9658;DHT22;4867;48.112;11.622;2023-12-20T00:00:37;6.20;99.90
9658;DHT22;4867;48.112;11.622;2023-12-20T00:03:05;6.20;99.90
9658;DHT22;4867;48.112;11.622;2023-12-20T00:05:32;6.30;99.90
9658;DHT22;4867;48.112;11.622;2023-12-20T00:08:00;6.20;99.90
9658;DHT22;4867;48.112;11.622;2023-12-20T00:10:28;6.20;99.90
9658;DHT22;4867;48.112;11.622;2023-12-20T00:12:55;6.20;99.90
9658;DHT22;4867;48.112;11.622;2023-12-20T00:15:22;6.20;99.90
9658;DHT22;4867;48.112;11.622;2023-12-20T00:17:50;6.20;99.90
9658;DHT22;4867;48.112;11.622;2023-12-20T00:20:17;6.20;99.90
9658;DHT22;4867;48.112;11.622;2023-12-20T00:22:44;6.20;99.90
9658;DHT22;4867;48.112;11.622;2023-12-20T00:25:12;6.20;99.90
9658;DHT22;4867;48.112;11.622;2023-12-20T00:27:39;6.20;99.90
9658;DHT22;4867;48.112;11.622;2023-12-20T00:30:07;6.20;99.90
9658;DHT22;4867;48.112;11.622;2023-12-20T00:32:35;6.20;99.90
9658;DHT22;4867;48.112;11.622;2023-12-20T00:35:03;6.20;99.90
9658;DHT22;4867;48.112;11.622;2023-12-20T00:37:30;6.20;99.90
9658;DHT22;4867;48.112;11.622;2023-12-20T00:39:58;6.20;99.90
9658;DHT22;4867;48.112;11.622;2023-12-20T00:42:25;6.30;99.90
9658;DHT22;4867;48.112;11.622;2023-12-20T00:44:53;6.40;99.90
9658;DHT22;4867;48.112;11.622;2023-12-20T00:47:20;6.50;99.90
9658;DHT22;4867;48.112;11.622;2023-12-20T00:49:47;6.50;99.90
9658;DHT22;4867;48.112;11.622;2023-12-20T00:52:15;6.60;99.90
9658;DHT22;4867;48.112;11.622;2023-12-20T00:54:44;6.70;99.90
9658;DHT22;4867;48.112;11.622;2023-12-20T00:57:12;6.80;99.90
9658;DHT22;4867;48.112;11.622;2023-12-20T00:59:39;6.80;99.90
9658;DHT22;4867;48.112;11.622;2023-12-20T01:02:06;6.80;99.90
9658;DHT22;4867;48.112;11.622;2023-12-20T01:04:34;6.80;99.90
9658;DHT22;4867;48.112;11.622;2023-12-20T01:07:01;6.80;99.90
9658;DHT22;4867;48.112;11.622;2023-12-20T01:09:29;6.80;99.90
9658;DHT22;4867;48.112;11.622;2023-12-20T01:11:56;6.80;99.90
9658;DHT22;4867;48.112;11.622;2023-12-20T01:14:23;6.80;99.90
9658;DHT22;4867;48.112;11.622;2023-12-20T01:16:51;6.80;99.90
9658;DHT22;4867;48.112;11.622;2023-12-20T01:19:18;6.80;99.90
9658;DHT22;4867;48.112;11.622;2023-12-20T01:21:45;6.80;99.90
9658;DHT22;4867;48.112;11.622;2023-12-20T01:24:13;6.80;99.90
9658;DHT22;4867;48.112;11.622;2023-12-20T01:26:40;6.80;99.90
9658;DHT22;4867;48.112;11.622;2023-12-20T01:29:07;6.80;99.90
9658;DHT22;4867;48.112;11.622;2023-12-20T01:31:35;6.80;99.90
9658;DHT22;4867;48.112;11.622;2023-12-20T01:34:02;6.90;99.90
9658;DHT22;4867;48.112;11.622;2023-12-20T01:36:30;6.90;99.90
9658;DHT22;4867;48.112;11.622;2023-12-20T01:38:57;6.80;99.90
9658;DHT22;4867;48.112;11.622;2023-12-20T01:41:24;6.80;99.90
9658;DHT22;4867;48.112;11.622;2023-12-20T01:43:52;6.80;99.90
9658;DHT22;4867;48.112;11.622;2023-12-20T01:46:21;6.80;99.90
9658;DHT22;4867;48.112;11.622;2023-12-20T01:48:49;6.80;99.90
9658;DHT22;4867;48.112;11.622;2023-12-20T01:51:17;6.80;99.90
9658;DHT22;4867;48.112;11.622;2023-12-20T01:53:44;6.80;99.90
9658;DHT22;4867;48.112;11.622;2023-12-20T01:56:12;6.80;99.90
9658;DHT22;4867;48.112;11.622;2023-12-20T01:58:43;6.80;99.90
9658;DHT22;4867;48.112;11.622;2023-12-20T02:01:11;6.80;99.90
9658;DHT22;4867;48.112;11.622;2023-12-20T02:03:43;6.80;99.90
9658;DHT22;4867;48.112;11.622;2023-12-20T02:06:11;6.80;99.90
9658;DHT22;4867;48.112;11.622;2023-12-20T02:08:39;6.80;99.90
9658;DHT22;4867;48.112;11.622;2023-12-20T02:11:06;6.80;99.90
9658;DHT22;4867;48.112;11.622;2023-12-20T02:13:33;6.80;99.90
9658;DHT22;4867;48.112;11.622;2023-12-20T02:16:01;6.90;99.90
9658;DHT22;4867;48.112;11.622;2023-12-20T02:18:28;7.00;99.90
9658;DHT22;4867;48.112;11.622;2023-12-20T02:20:56;7.00;99.90
9658;DHT22;4867;48.112;11.622;2023-12-20T02:23:23;7.00;99.90
9658;DHT22;4867;48.112;11.622;2023-12-20T02:25:50;7.00;99.90
9658;DHT22;4867;48.112;11.622;2023-12-20T02:28:18;7.10;99.90
9658;DHT22;4867;48.112;11.622;2023-12-20T02:30:46;7.10;99.90
9658;DHT22;4867;48.112;11.622;2023-12-20T02:33:14;7.10;99.90
9658;DHT22;4867;48.112;11.622;2023-12-20T02:35:42;7.10;99.90
9658;DHT22;4867;48.112;11.622;2023-12-20T02:38:09;7.10;99.90
9658;DHT22;4867;48.112;11.622;2023-12-20T02:40:37;7.20;99.90
9658;DHT22;4867;48.112;11.622;2023-12-20T02:43:04;7.20;99.90
9658;DHT22;4867;48.112;11.622;2023-12-20T02:45:31;7.20;99.90
9658;DHT22;4867;48.112;11.622;2023-12-20T02:47:59;7.20;99.90
9658;DHT22;4867;48.112;11.622;2023-12-20T02:50:26;7.20;99.90
9658;DHT22;4867;48.112;11.622;2023-12-20T02:52:54;7.30;99.90
9658;DHT22;4867;48.112;11.622;2023-12-20T02:55:21;7.30;99.90
9658;DHT22;4867;48.112;11.622;2023-12-20T02:57:48;7.30;99.90
9658;DHT22;4867;48.112;11.622;2023-12-20T03:00:16;7.30;99.90
9658;DHT22;4867;48.112;11.622;2023-12-20T03:02:45;7.30;99.90
9658;DHT22;4867;48.112;11.622;2023-12-20T03:05:12;7.20;99.90
9658;DHT22;4867;48.112;11.622;2023-12-20T03:07:39;7.20;99.90
9658;DHT22;4867;48.112;11.622;2023-12-20T03:10:07;7.20;99.90
9658;DHT22;4867;48.112;11.622;2023-12-20T03:12:46;7.20;99.90
9658;DHT22;4867;48.112;11.622;2023-12-20T03:15:14;7.20;99.90
9658;DHT22;4867;48.112;11.622;2023-12-20T03:17:41;7.20;99.90
9658;DHT22;4867;48.112;11.622;2023-12-20T03:20:10;7.20;99.90
9658;DHT22;4867;48.112;11.622;2023-12-20T03:22:37;7.20;99.90
9658;DHT22;4867;48.112;11.622;2023-12-20T03:25:04;7.20;99.90
9658;DHT22;4867;48.112;11.622;2023-12-20T03:27:32;7.20;99.90
9658;DHT22;4867;48.112;11.622;2023-12-20T03:29:59;7.20;99.90
9658;DHT22;4867;48.112;11.622;2023-12-20T03:32:27;7.20;99.90
9658;DHT22;4867;48.112;11.622;2023-12-20T03:34:54;7.30;99.90
9658;DHT22;4867;48.112;11.622;2023-12-20T03:37:22;7.30;99.90
9658;DHT22;4867;48.112;11.622;2023-12-20T03:39:49;7.30;99.90
9658;DHT22;4867;48.112;11.622;2023-12-20T03:42:17;7.30;99.90
9658;DHT22;4867;48.112;11.622;2023-12-20T03:44:44;7.30;99.90
9658;DHT22;4867;48.112;11.622;2023-12-20T03:47:11;7.30;99.90
9658;DHT22;4867;48.112;11.622;2023-12-20T03:49:39;7.30;99.90
9658;DHT22;4867;48.112;11.622;2023-12-20T03:52:06;7.30;99.90
9658;DHT22;4867;48.112;11.622;2023-12-20T03:54:35;7.30;99.90
9658;DHT22;4867;48.112;11.622;2023-12-20T03:57:03;7.30;99.90
9658;DHT22;4867;48.112;11.622;2023-12-20T03:59:35;7.30;99.90
9658;DHT22;4867;48.112;11.622;2023-12-20T04:02:03;7.30;99.90
9658;DHT22;4867;48.112;11.622;2023-12-20T04:04:31;7.30;99.90
9658;DHT22;4867;48.112;11.622;2023-12-20T04:06:58;7.20;99.90
9658;DHT22;4867;48.112;11.622;2023-12-20T04:09:26;7.20;99.90
9658;DHT22;4867;48.112;11.622;2023-12-20T04:11:53;7.10;99.90
9658;DHT22;4867;48.112;11.622;2023-12-20T04:14:21;7.10;99.90
9658;DHT22;4867;48.112;11.622;2023-12-20T04:16:48;7.10;99.90
9658;DHT22;4867;48.112;11.622;2023-12-20T04:19:15;7.10;99.90
9658;DHT22;4867;48.112;11.622;2023-12-20T04:21:43;7.10;99.90
9658;DHT22;4867;48.112;11.622;2023-12-20T04:24:10;7.10;99.90
9658;DHT22;4867;48.112;11.622;2023-12-20T04:26:37;7.10;99.90
9658;DHT22;4867;48.112;11.622;2023-12-20T04:29:04;7.00;99.90
9658;DHT22;4867;48.112;11.622;2023-12-20T04:31:32;6.90;99.90
9658;DHT22;4867;48.112;11.622;2023-12-20T04:33:59;6.90;99.90
9658;DHT22;4867;48.112;11.622;2023-12-20T04:36:27;6.90;99.90
9658;DHT22;4867;48.112;11.622;2023-12-20T04:38:57;6.80;99.90
9658;DHT22;4867;48.112;11.622;2023-12-20T04:41:24;6.70;99.90
9658;DHT22;4867;48.112;11.622;2023-12-20T04:43:51;6.70;99.90
9658;DHT22;4867;48.112;11.622;2023-12-20T04:46:18;6.70;99.90
9658;DHT22;4867;48.112;11.622;2023-12-20T04:48:46;6.70;99.90
9658;DHT22;4867;48.112;11.622;2023-12-20T04:51:13;6.70;99.90
9658;DHT22;4867;48.112;11.622;2023-12-20T04:53:41;6.70;99.90
9658;DHT22;4867;48.112;11.622;2023-12-20T04:56:08;6.70;99.90
9658;DHT22;4867;48.112;11.622;2023-12-20T04:58:35;6.70;99.90
9658;DHT22;4867;48.112;11.622;2023-12-20T05:01:05;6.60;99.90
9658;DHT22;4867;48.112;11.622;2023-12-20T05:03:33;6.50;99.90
9658;DHT22;4867;48.112;11.622;2023-12-20T05:06:00;6.40;99.90
9658;DHT22;4867;48.112;11.622;2023-12-20T05:08:27;6.40;99.90
9658;DHT22;4867;48.112;11.622;2023-12-20T05:10:55;6.40;99.90
9658;DHT22;4867;48.112;11.622;2023-12-20T05:13:22;6.30;99.90
9658;DHT22;4867;48.112;11.622;2023-12-20T05:16:00;6.30;99.90
9658;DHT22;4867;48.112;11.622;2023-12-20T05:18:27;6.30;99.90
9658;DHT22;4867;48.112;11.622;2023-12-20T05:20:55;6.20;99.90
9658;DHT22;4867;48.112;11.622;2023-12-20T05:23:25;6.10;99.90
9658;DHT22;4867;48.112;11.622;2023-12-20T05:25:52;6.10;99.90
9658;DHT22;4867;48.112;11.622;2023-12-20T05:28:20;6.00;99.90
9658;DHT22;4867;48.112;11.622;2023-12-20T05:30:47;6.00;99.90
9658;DHT22;4867;48.112;11.622;2023-12-20T05:33:15;6.00;99.90
9658;DHT22;4867;48.112;11.622;2023-12-20T05:35:42;5.90;99.90
9658;DHT22;4867;48.112;11.622;2023-12-20T05:38:10;5.90;99.90
9658;DHT22;4867;48.112;11.622;2023-12-20T05:40:37;5.80;99.90
9658;DHT22;4867;48.112;11.622;2023-12-20T05:43:04;5.80;99.90
9658;DHT22;4867;48.112;11.622;2023-12-20T05:45:32;5.70;99.90
9658;DHT22;4867;48.112;11.622;2023-12-20T05:47:59;5.70;99.90
9658;DHT22;4867;48.112;11.622;2023-12-20T05:50:27;5.70;99.90
9658;DHT22;4867;48.112;11.622;2023-12-20T05:52:54;5.60;99.90
9658;DHT22;4867;48.112;11.622;2023-12-20T05:55:22;5.60;99.90
9658;DHT22;4867;48.112;11.622;2023-12-20T05:57:49;5.60;99.90
9658;DHT22;4867;48.112;11.622;2023-12-20T06:00:17;5.50;99.90
9658;DHT22;4867;48.112;11.622;2023-12-20T06:02:44;5.50;99.90
9658;DHT22;4867;48.112;11.622;2023-12-20T06:05:12;5.40;99.90
9658;DHT22;4867;48.112;11.622;2023-12-20T06:07:39;5.40;99.90
9658;DHT22;4867;48.112;11.622;2023-12-20T06:10:07;5.40;99.90
9658;DHT22;4867;48.112;11.622;2023-12-20T06:12:34;5.40;99.90
9658;DHT22;4867;48.112;11.622;2023-12-20T06:15:03;5.40;99.90
9658;DHT22;4867;48.112;11.622;2023-12-20T06:17:31;5.40;99.90
9658;DHT22;4867;48.112;11.622;2023-12-20T06:19:58;5.40;99.90
9658;DHT22;4867;48.112;11.622;2023-12-20T06:22:26;5.30;99.90
9658;DHT22;4867;48.112;11.622;2023-12-20T06:24:54;5.20;99.90
9658;DHT22;4867;48.112;11.622;2023-12-20T06:27:21;5.20;99.90
9658;DHT22;4867;48.112;11.622;2023-12-20T06:29:49;5.20;99.90
9658;DHT22;4867;48.112;11.622;2023-12-20T06:32:16;5.10;99.90
9658;DHT22;4867;48.112;11.622;2023-12-20T06:34:44;5.10;99.90
9658;DHT22;4867;48.112;11.622;2023-12-20T06:37:12;5.10;99.90
9658;DHT22;4867;48.112;11.622;2023-12-20T06:39:39;5.10;99.90
9658;DHT22;4867;48.112;11.622;2023-12-20T06:42:07;5.10;99.90
9658;DHT22;4867;48.112;11.622;2023-12-20T06:44:34;5.00;99.90
9658;DHT22;4867;48.112;11.622;2023-12-20T06:47:02;5.00;99.90
9658;DHT22;4867;48.112;11.622;2023-12-20T06:49:29;5.00;99.90
9658;DHT22;4867;48.112;11.622;2023-12-20T06:51:56;5.00;99.90
9658;DHT22;4867;48.112;11.622;2023-12-20T06:54:24;4.90;99.90
9658;DHT22;4867;48.112;11.622;2023-12-20T06:56:51;4.90;99.90
9658;DHT22;4867;48.112;11.622;2023-12-20T06:59:18;4.90;99.90
9658;DHT22;4867;48.112;11.622;2023-12-20T07:01:49;4.80;99.90
9658;DHT22;4867;48.112;11.622;2023-12-20T07:04:17;4.90;99.90
9658;DHT22;4867;48.112;11.622;2023-12-20T07:06:49;4.80;99.90
9658;DHT22;4867;48.112;11.622;2023-12-20T07:09:21;4.80;99.90
9658;DHT22;4867;48.112;11.622;2023-12-20T07:11:48;4.80;99.90
9658;DHT22;4867;48.112;11.622;2023-12-20T07:14:16;4.80;99.90
9658;DHT22;4867;48.112;11.622;2023-12-20T07:16:43;4.80;99.90
9658;DHT22;4867;48.112;11.622;2023-12-20T07:19:10;4.80;99.90
9658;DHT22;4867;48.112;11.622;2023-12-20T07:21:38;4.80;99.90
9658;DHT22;4867;48.112;11.622;2023-12-20T07:24:05;4.80;99.90
9658;DHT22;4867;48.112;11.622;2023-12-20T07:26:32;4.90;99.90
9658;DHT22;4867;48.112;11.622;2023-12-20T07:29:01;4.80;99.90
9658;DHT22;4867;48.112;11.622;2023-12-20T07:31:28;4.80;99.90
9658;DHT22;4867;48.112;11.622;2023-12-20T07:33:56;4.80;99.90
9658;DHT22;4867;48.112;11.622;2023-12-20T07:36:23;4.80;99.90
9658;DHT22;4867;48.112;11.622;2023-12-20T07:38:50;4.70;99.90
9658;DHT22;4867;48.112;11.622;2023-12-20T07:41:18;4.70;99.90
9658;DHT22;4867;48.112;11.622;2023-12-20T07:43:48;4.70;99.90
9658;DHT22;4867;48.112;11.622;2023-12-20T07:46:16;4.70;99.90
9658;DHT22;4867;48.112;11.622;2023-12-20T07:48:43;4.70;99.90
9658;DHT22;4867;48.112;11.622;2023-12-20T07:51:12;4.80;99.90
9658;DHT22;4867;48.112;11.622;2023-12-20T07:53:39;4.80;99.90
9658;DHT22;4867;48.112;11.622;2023-12-20T07:56:17;4.70;99.90
9658;DHT22;4867;48.112;11.622;2023-12-20T07:58:45;4.80;99.90
9658;DHT22;4867;48.112;11.622;2023-12-20T08:01:20;4.80;99.90
9658;DHT22;4867;48.112;11.622;2023-12-20T08:03:49;4.80;99.90
9658;DHT22;4867;48.112;11.622;2023-12-20T08:06:17;4.80;99.90
9658;DHT22;4867;48.112;11.622;2023-12-20T08:08:45;4.80;99.90
9658;DHT22;4867;48.112;11.622;2023-12-20T08:11:19;4.70;99.90
9658;DHT22;4867;48.112;11.622;2023-12-20T08:13:46;4.80;99.90
9658;DHT22;4867;48.112;11.622;2023-12-20T08:16:13;4.70;99.90
9658;DHT22;4867;48.112;11.622;2023-12-20T08:18:43;4.70;99.90
9658;DHT22;4867;48.112;11.622;2023-12-20T08:21:10;4.70;99.90
9658;DHT22;4867;48.112;11.622;2023-12-20T08:23:38;4.80;99.90
9658;DHT22;4867;48.112;11.622;2023-12-20T08:26:06;4.80;99.90
9658;DHT22;4867;48.112;11.622;2023-12-20T08:28:34;4.70;99.90
9658;DHT22;4867;48.112;11.622;2023-12-20T08:31:01;4.80;99.90
9658;DHT22;4867;48.112;11.622;2023-12-20T08:33:29;4.70;99.90
9658;DHT22;4867;48.112;11.622;2023-12-20T08:35:59;4.70;99.90
9658;DHT22;4867;48.112;11.622;2023-12-20T08:38:27;4.60;99.90
9658;DHT22;4867;48.112;11.622;2023-12-20T08:40:54;4.60;99.90
9658;DHT22;4867;48.112;11.622;2023-12-20T08:43:21;4.70;99.90
9658;DHT22;4867;48.112;11.622;2023-12-20T08:45:50;4.70;99.90
9658;DHT22;4867;48.112;11.622;2023-12-20T08:48:17;4.60;99.90
9658;DHT22;4867;48.112;11.622;2023-12-20T08:50:44;4.60;99.90
9658;DHT22;4867;48.112;11.622;2023-12-20T08:53:13;4.60;99.90
9658;DHT22;4867;48.112;11.622;2023-12-20T08:55:40;4.70;99.90
9658;DHT22;4867;48.112;11.622;2023-12-20T08:58:07;4.70;99.90
9658;DHT22;4867;48.112;11.622;2023-12-20T09:00:35;4.70;99.90
9658;DHT22;4867;48.112;11.622;2023-12-20T09:03:03;4.70;99.90
9658;DHT22;4867;48.112;11.622;2023-12-20T09:05:30;4.80;99.90
9658;DHT22;4867;48.112;11.622;2023-12-20T09:07:58;4.80;99.90
9658;DHT22;4867;48.112;11.622;2023-12-20T09:10:25;4.80;99.90
9658;DHT22;4867;48.112;11.622;2023-12-20T09:12:53;4.90;99.90
9658;DHT22;4867;48.112;11.622;2023-12-20T09:15:25;5.00;99.90
9658;DHT22;4867;48.112;11.622;2023-12-20T09:17:53;5.10;99.90
9658;DHT22;4867;48.112;11.622;2023-12-20T09:20:21;5.10;99.90
9658;DHT22;4867;48.112;11.622;2023-12-20T09:22:50;5.20;99.90
9658;DHT22;4867;48.112;11.622;2023-12-20T09:25:18;5.30;99.90
9658;DHT22;4867;48.112;11.622;2023-12-20T09:27:45;5.30;99.90
9658;DHT22;4867;48.112;11.622;2023-12-20T09:30:13;5.30;99.90
9658;DHT22;4867;48.112;11.622;2023-12-20T09:32:54;5.40;99.90
9658;DHT22;4867;48.112;11.622;2023-12-20T09:35:22;5.30;99.90
9658;DHT22;4867;48.112;11.622;2023-12-20T09:37:50;5.30;99.90
9658;DHT22;4867;48.112;11.622;2023-12-20T09:40:20;5.40;99.90
9658;DHT22;4867;48.112;11.622;2023-12-20T09:43:10;5.30;99.90
9658;DHT22;4867;48.112;11.622;2023-12-20T09:45:39;5.40;99.90
9658;DHT22;4867;48.112;11.622;2023-12-20T09:48:11;5.40;99.90
9658;DHT22;4867;48.112;11.622;2023-12-20T09:50:39;5.30;99.90
9658;DHT22;4867;48.112;11.622;2023-12-20T09:53:08;5.20;99.90
9658;DHT22;4867;48.112;11.622;2023-12-20T09:55:37;5.20;99.90
9658;DHT22;4867;48.112;11.622;2023-12-20T09:58:05;5.20;99.90
9658;DHT22;4867;48.112;11.622;2023-12-20T10:00:37;5.20;99.90
9658;DHT22;4867;48.112;11.622;2023-12-20T10:03:06;5.20;99.90
9658;DHT22;4867;48.112;11.622;2023-12-20T10:05:34;5.10;99.90
9658;DHT22;4867;48.112;11.622;2023-12-20T10:08:02;5.20;99.90
9658;DHT22;4867;48.112;11.622;2023-12-20T10:10:30;5.20;99.90
9658;DHT22;4867;48.112;11.622;2023-12-20T10:13:12;5.40;99.90
9658;DHT22;4867;48.112;11.622;2023-12-20T10:15:41;5.50;99.90
9658;DHT22;4867;48.112;11.622;2023-12-20T10:18:11;5.40;99.90
9658;DHT22;4867;48.112;11.622;2023-12-20T10:20:41;5.50;99.90
9658;DHT22;4867;48.112;11.622;2023-12-20T10:23:10;5.40;99.90
9658;DHT22;4867;48.112;11.622;2023-12-20T10:25:38;5.40;99.90
9658;DHT22;4867;48.112;11.622;2023-12-20T10:28:15;5.50;99.90
9658;DHT22;4867;48.112;11.622;2023-12-20T10:30:46;5.60;99.90
9658;DHT22;4867;48.112;11.622;2023-12-20T10:33:26;5.50;99.90
9658;DHT22;4867;48.112;11.622;2023-12-20T10:35:55;5.60;99.90
9658;DHT22;4867;48.112;11.622;2023-12-20T10:38:22;5.60;99.90
9658;DHT22;4867;48.112;11.622;2023-12-20T10:40:54;5.70;99.90
9658;DHT22;4867;48.112;11.622;2023-12-20T10:43:24;5.70;99.90
9658;DHT22;4867;48.112;11.622;2023-12-20T10:45:53;5.70;99.90
9658;DHT22;4867;48.112;11.622;2023-12-20T10:48:21;5.70;99.90
9658;DHT22;4867;48.112;11.622;2023-12-20T10:50:55;5.60;99.90
9658;DHT22;4867;48.112;11.622;2023-12-20T10:53:24;5.60;99.90
9658;DHT22;4867;48.112;11.622;2023-12-20T10:55:55;5.60;99.90
9658;DHT22;4867;48.112;11.622;2023-12-20T10:58:26;5.70;99.90
9658;DHT22;4867;48.112;11.622;2023-12-20T11:01:00;5.70;99.90
9658;DHT22;4867;48.112;11.622;2023-12-20T11:03:35;5.70;99.90
9658;DHT22;4867;48.112;11.622;2023-12-20T11:06:33;5.80;99.90
9658;DHT22;4867;48.112;11.622;2023-12-20T11:14:23;5.70;99.90
9658;DHT22;4867;48.112;11.622;2023-12-20T11:17:14;5.60;99.90
9658;DHT22;4867;48.112;11.622;2023-12-20T11:20:04;5.60;99.90
9658;DHT22;4867;48.112;11.622;2023-12-20T11:22:33;5.50;99.90
9658;DHT22;4867;48.112;11.622;2023-12-20T11:25:09;5.50;99.90
9658;DHT22;4867;48.112;11.622;2023-12-20T11:27:41;5.60;99.90
9658;DHT22;4867;48.112;11.622;2023-12-20T11:30:11;5.50;99.90
9658;DHT22;4867;48.112;11.622;2023-12-20T11:32:40;5.50;99.90
9658;DHT22;4867;48.112;11.622;2023-12-20T11:37:38;5.60;99.90
9658;DHT22;4867;48.112;11.622;2023-12-20T11:40:14;5.60;99.90
9658;DHT22;4867;48.112;11.622;2023-12-20T11:42:43;5.70;99.90
9658;DHT22;4867;48.112;11.622;2023-12-20T11:45:14;5.70;99.90
9658;DHT22;4867;48.112;11.622;2023-12-20T11:47:47;5.80;99.90
9658;DHT22;4867;48.112;11.622;2023-12-20T11:50:18;5.90;99.90
9658;DHT22;4867;48.112;11.622;2023-12-20T11:52:47;5.80;99.90
9658;DHT22;4867;48.112;11.622;2023-12-20T11:55:15;5.80;99.90
9658;DHT22;4867;48.112;11.622;2023-12-20T11:57:43;5.90;99.90
9658;DHT22;4867;48.112;11.622;2023-12-20T12:00:12;6.00;99.90
9658;DHT22;4867;48.112;11.622;2023-12-20T12:02:40;6.00;99.90
9658;DHT22;4867;48.112;11.622;2023-12-20T12:05:08;6.10;99.90
9658;DHT22;4867;48.112;11.622;2023-12-20T12:07:36;6.00;99.90
9658;DHT22;4867;48.112;11.622;2023-12-20T12:10:03;6.10;99.90
9658;DHT22;4867;48.112;11.622;2023-12-20T12:12:31;6.20;99.90
9658;DHT22;4867;48.112;11.622;2023-12-20T12:14:59;6.10;99.90
9658;DHT22;4867;48.112;11.622;2023-12-20T12:17:27;6.20;99.90
9658;DHT22;4867;48.112;11.622;2023-12-20T12:20:05;6.20;99.90
9658;DHT22;4867;48.112;11.622;2023-12-20T12:22:33;6.10;99.90
9658;DHT22;4867;48.112;11.622;2023-12-20T12:25:11;6.20;99.90
9658;DHT22;4867;48.112;11.622;2023-12-20T12:27:43;6.20;99.90
9658;DHT22;4867;48.112;11.622;2023-12-20T12:30:11;6.30;99.90
9658;DHT22;4867;48.112;11.622;2023-12-20T12:32:40;6.30;99.90
9658;DHT22;4867;48.112;11.622;2023-12-20T12:35:08;6.20;99.90
9658;DHT22;4867;48.112;11.622;2023-12-20T12:37:41;6.20;99.90
9658;DHT22;4867;48.112;11.622;2023-12-20T12:40:16;6.20;99.90
9658;DHT22;4867;48.112;11.622;2023-12-20T12:42:45;6.20;99.90
9658;DHT22;4867;48.112;11.622;2023-12-20T12:45:12;6.10;99.90
9658;DHT22;4867;48.112;11.622;2023-12-20T12:47:40;6.00;99.90
9658;DHT22;4867;48.112;11.622;2023-12-20T12:50:08;6.00;99.90
9658;DHT22;4867;48.112;11.622;2023-12-20T12:52:36;6.00;99.90
9658;DHT22;4867;48.112;11.622;2023-12-20T12:55:03;6.10;99.90
9658;DHT22;4867;48.112;11.622;2023-12-20T12:57:32;6.10;99.90
9658;DHT22;4867;48.112;11.622;2023-12-20T13:00:00;6.10;99.90
9658;DHT22;4867;48.112;11.622;2023-12-20T13:02:29;6.10;99.90
9658;DHT22;4867;48.112;11.622;2023-12-20T13:04:57;6.10;99.90
9658;DHT22;4867;48.112;11.622;2023-12-20T13:07:25;6.10;99.90
9658;DHT22;4867;48.112;11.622;2023-12-20T13:09:52;6.10;99.90
9658;DHT22;4867;48.112;11.622;2023-12-20T13:12:20;6.10;99.90
9658;DHT22;4867;48.112;11.622;2023-12-20T13:14:48;6.00;99.90
9658;DHT22;4867;48.112;11.622;2023-12-20T13:17:15;6.00;99.90
9658;DHT22;4867;48.112;11.622;2023-12-20T13:19:43;6.00;99.90
9658;DHT22;4867;48.112;11.622;2023-12-20T13:22:11;5.80;99.90
9658;DHT22;4867;48.112;11.622;2023-12-20T13:24:38;5.50;99.90
9658;DHT22;4867;48.112;11.622;2023-12-20T13:27:06;5.40;99.90
9658;DHT22;4867;48.112;11.622;2023-12-20T13:29:33;5.20;99.90
9658;DHT22;4867;48.112;11.622;2023-12-20T13:32:03;5.10;99.90
9658;DHT22;4867;48.112;11.622;2023-12-20T13:34:31;4.80;99.90
9658;DHT22;4867;48.112;11.622;2023-12-20T13:36:59;4.80;99.90
9658;DHT22;4867;48.112;11.622;2023-12-20T13:39:26;4.80;99.90
9658;DHT22;4867;48.112;11.622;2023-12-20T13:41:53;4.70;99.90
9658;DHT22;4867;48.112;11.622;2023-12-20T13:44:24;4.60;99.90
9658;DHT22;4867;48.112;11.622;2023-12-20T13:46:51;4.60;99.90
9658;DHT22;4867;48.112;11.622;2023-12-20T13:49:19;4.60;99.90
9658;DHT22;4867;48.112;11.622;2023-12-20T13:51:46;4.70;99.90
9658;DHT22;4867;48.112;11.622;2023-12-20T13:54:14;4.50;99.90
9658;DHT22;4867;48.112;11.622;2023-12-20T13:56:43;4.50;99.90
9658;DHT22;4867;48.112;11.622;2023-12-20T13:59:30;4.50;99.90
9658;DHT22;4867;48.112;11.622;2023-12-20T14:01:57;4.60;99.90
9658;DHT22;4867;48.112;11.622;2023-12-20T14:04:25;4.60;99.90
9658;DHT22;4867;48.112;11.622;2023-12-20T14:07:10;4.60;99.90
9658;DHT22;4867;48.112;11.622;2023-12-20T14:09:40;4.50;99.90
9658;DHT22;4867;48.112;11.622;2023-12-20T14:12:12;4.50;99.90
9658;DHT22;4867;48.112;11.622;2023-12-20T14:14:40;4.60;99.90
9658;DHT22;4867;48.112;11.622;2023-12-20T14:17:07;4.70;99.90
9658;DHT22;4867;48.112;11.622;2023-12-20T14:19:35;4.60;99.90
9658;DHT22;4867;48.112;11.622;2023-12-20T14:22:02;4.60;99.90
9658;DHT22;4867;48.112;11.622;2023-12-20T14:24:31;4.70;99.90
9658;DHT22;4867;48.112;11.622;2023-12-20T14:26:59;4.70;99.90
9658;DHT22;4867;48.112;11.622;2023-12-20T14:29:26;4.70;99.90
9658;DHT22;4867;48.112;11.622;2023-12-20T14:31:54;4.70;99.90
9658;DHT22;4867;48.112;11.622;2023-12-20T14:34:21;4.70;99.90
9658;DHT22;4867;48.112;11.622;2023-12-20T14:36:51;4.70;99.90
9658;DHT22;4867;48.112;11.622;2023-12-20T14:39:19;4.70;99.90
9658;DHT22;4867;48.112;11.622;2023-12-20T14:41:47;4.60;99.90
9658;DHT22;4867;48.112;11.622;2023-12-20T14:44:14;4.60;99.90
9658;DHT22;4867;48.112;11.622;2023-12-20T14:46:41;4.50;99.90
9658;DHT22;4867;48.112;11.622;2023-12-20T14:49:09;4.70;99.90
9658;DHT22;4867;48.112;11.622;2023-12-20T14:51:36;4.70;99.90
9658;DHT22;4867;48.112;11.622;2023-12-20T14:54:05;4.60;99.90
9658;DHT22;4867;48.112;11.622;2023-12-20T14:56:38;4.60;99.90
9658;DHT22;4867;48.112;11.622;2023-12-20T14:59:06;4.60;99.90
9658;DHT22;4867;48.112;11.622;2023-12-20T15:01:35;4.60;99.90
9658;DHT22;4867;48.112;11.622;2023-12-20T15:04:03;4.60;99.90
9658;DHT22;4867;48.112;11.622;2023-12-20T15:06:31;4.60;99.90
9658;DHT22;4867;48.112;11.622;2023-12-20T15:08:59;4.60;99.90
9658;DHT22;4867;48.112;11.622;2023-12-20T15:11:27;4.60;99.90
9658;DHT22;4867;48.112;11.622;2023-12-20T15:13:54;4.70;99.90
9658;DHT22;4867;48.112;11.622;2023-12-20T15:16:23;4.60;99.90
9658;DHT22;4867;48.112;11.622;2023-12-20T15:18:51;4.60;99.90
9658;DHT22;4867;48.112;11.622;2023-12-20T15:21:19;4.50;99.90
9658;DHT22;4867;48.112;11.622;2023-12-20T15:23:46;4.50;99.90
9658;DHT22;4867;48.112;11.622;2023-12-20T15:26:20;4.50;99.90
9658;DHT22;4867;48.112;11.622;2023-12-20T15:28:47;4.50;99.90
9658;DHT22;4867;48.112;11.622;2023-12-20T15:31:14;4.50;99.90
9658;DHT22;4867;48.112;11.622;2023-12-20T15:33:42;4.50;99.90
9658;DHT22;4867;48.112;11.622;2023-12-20T15:36:10;4.50;99.90
9658;DHT22;4867;48.112;11.622;2023-12-20T15:38:37;4.60;99.90
9658;DHT22;4867;48.112;11.622;2023-12-20T15:41:05;4.60;99.90
9658;DHT22;4867;48.112;11.622;2023-12-20T15:43:33;4.60;99.90
9658;DHT22;4867;48.112;11.622;2023-12-20T15:46:00;4.50;99.90
9658;DHT22;4867;48.112;11.622;2023-12-20T15:48:32;4.40;99.90
9658;DHT22;4867;48.112;11.622;2023-12-20T15:51:03;4.40;99.90
9658;DHT22;4867;48.112;11.622;2023-12-20T15:53:31;4.40;99.90
9658;DHT22;4867;48.112;11.622;2023-12-20T15:55:59;4.30;99.90
9658;DHT22;4867;48.112;11.622;2023-12-20T15:58:27;4.20;99.90
9658;DHT22;4867;48.112;11.622;2023-12-20T16:00:55;4.20;99.90
9658;DHT22;4867;48.112;11.622;2023-12-20T16:03:22;4.10;99.90
9658;DHT22;4867;48.112;11.622;2023-12-20T16:05:53;4.10;99.90
9658;DHT22;4867;48.112;11.622;2023-12-20T16:08:21;4.10;99.90
9658;DHT22;4867;48.112;11.622;2023-12-20T16:10:51;4.00;99.90
9658;DHT22;4867;48.112;11.622;2023-12-20T16:13:19;4.00;99.90
9658;DHT22;4867;48.112;11.622;2023-12-20T16:15:48;3.90;99.90
9658;DHT22;4867;48.112;11.622;2023-12-20T16:18:15;3.90;99.90